createdAt,value
2023-04-26T00:00:49.962Z,0.00
2023-04-26T00:05:49.986Z,0.00
2023-04-26T00:10:49.720Z,0.00
2023-04-26T00:15:52.706Z,0.00
2023-04-26T00:20:49.599Z,0.00
2023-04-26T00:25:49.564Z,0.00
2023-04-26T00:30:49.465Z,0.00
2023-04-26T00:35:49.445Z,0.00
2023-04-26T00:40:49.340Z,0.00
2023-04-26T00:45:49.335Z,0.00
2023-04-26T00:50:49.209Z,0.00
2023-04-26T00:55:49.345Z,0.00
2023-04-26T01:00:49.161Z,0.00
2023-04-26T01:05:49.055Z,0.00
2023-04-26T01:10:48.939Z,0.00
2023-04-26T01:15:52.186Z,0.00
2023-04-26T01:20:48.972Z,0.00
2023-04-26T01:25:48.874Z,0.00
2023-04-26T01:30:48.945Z,0.00
2023-04-26T01:35:48.664Z,0.00
2023-04-26T01:40:48.622Z,0.00
2023-04-26T01:45:48.533Z,0.00
2023-04-26T01:50:48.441Z,0.00
2023-04-26T01:55:48.391Z,0.00
2023-04-26T02:00:48.321Z,0.00
2023-04-26T02:05:48.311Z,0.00
2023-04-26T02:10:48.178Z,0.00
2023-04-26T02:15:51.236Z,0.00
2023-04-26T02:20:48.039Z,0.00
2023-04-26T02:25:48.697Z,0.00
2023-04-26T02:30:47.910Z,0.00
2023-04-26T02:35:47.940Z,0.00
2023-04-26T02:40:47.970Z,0.00
2023-04-26T02:45:47.819Z,0.00
2023-04-26T02:50:47.651Z,0.00
2023-04-26T02:55:47.624Z,0.00
2023-04-26T03:00:47.519Z,0.00
2023-04-26T03:05:47.544Z,0.00
2023-04-26T03:10:47.423Z,0.00
2023-04-26T03:15:50.410Z,0.00
2023-04-26T03:20:47.352Z,4.00
2023-04-26T03:25:47.293Z,0.00
2023-04-26T03:30:47.206Z,4.00
2023-04-26T03:35:47.340Z,16.00
2023-04-26T03:40:47.010Z,32.00
2023-04-26T03:45:46.982Z,64.00
2023-04-26T03:50:46.906Z,124.00
2023-04-26T03:55:46.865Z,208.00
2023-04-26T04:00:46.815Z,320.00
2023-04-26T04:05:46.786Z,476.00
2023-04-26T04:10:46.684Z,656.00
2023-04-26T04:15:49.735Z,944.00
2023-04-26T04:20:46.632Z,1284.00
2023-04-26T04:25:46.589Z,1864.00
2023-04-26T04:30:46.363Z,2460.00
2023-04-26T04:35:46.344Z,3044.00
2023-04-26T04:40:46.235Z,3740.00
2023-04-26T04:45:46.281Z,4696.00
2023-04-26T04:50:46.103Z,5784.00
2023-04-26T04:55:46.076Z,6656.00
2023-04-26T05:00:45.975Z,7416.00
2023-04-26T05:05:45.983Z,8284.00
2023-04-26T05:10:45.850Z,9336.00
2023-04-26T05:15:48.824Z,10160.00
2023-04-26T05:20:45.798Z,10924.00
2023-04-26T05:25:45.814Z,13472.00
2023-04-26T05:30:45.575Z,17376.00
2023-04-26T05:35:45.549Z,13952.00
2023-04-26T05:40:45.523Z,13404.00
2023-04-26T05:45:45.518Z,18464.00
2023-04-26T05:50:45.453Z,17696.00
2023-04-26T05:55:45.365Z,20576.00
2023-04-26T06:00:45.174Z,21088.00
2023-04-26T06:05:45.209Z,22624.00
2023-04-26T06:10:45.147Z,24416.00
2023-04-26T06:15:48.040Z,25728.00
2023-04-26T06:20:44.967Z,27392.00
2023-04-26T06:25:45.007Z,30944.00
2023-04-26T06:30:44.883Z,9288.00
2023-04-26T06:35:44.774Z,33600.00
2023-04-26T06:40:44.669Z,17984.00
2023-04-26T06:45:45.726Z,31328.00
2023-04-26T06:50:44.603Z,40992.00
2023-04-26T06:55:44.573Z,40992.00
2023-04-26T07:00:44.446Z,9028.00
2023-04-26T07:05:44.583Z,14960.00
2023-04-26T07:10:44.266Z,11364.00
2023-04-26T07:15:47.443Z,44416.00
2023-04-26T07:20:44.170Z,41824.00
2023-04-26T07:25:44.111Z,48416.00
2023-04-26T07:30:44.013Z,15400.00
2023-04-26T07:35:43.992Z,48928.00
2023-04-26T07:40:44.082Z,53856.00
2023-04-26T07:45:43.922Z,41376.00
2023-04-26T07:50:43.847Z,32544.00
2023-04-26T07:55:43.787Z,9504.00
2023-04-26T08:00:43.669Z,29312.00
2023-04-26T08:05:44.132Z,55904.00
2023-04-26T08:10:43.453Z,12708.00
2023-04-26T08:15:46.589Z,13840.00
2023-04-26T08:20:43.345Z,13108.00
2023-04-26T08:25:43.289Z,14856.00
2023-04-26T08:30:43.245Z,9708.00
2023-04-26T08:35:43.200Z,12724.00
2023-04-26T08:40:43.058Z,9964.00
2023-04-26T08:45:43.213Z,12468.00
2023-04-26T08:50:42.949Z,6740.00
2023-04-26T08:55:43.029Z,6000.00
2023-04-26T09:00:42.815Z,6556.00
2023-04-26T09:05:43.044Z,8892.00
2023-04-26T09:10:42.783Z,12828.00
2023-04-26T09:15:46.260Z,12908.00
2023-04-26T09:20:42.560Z,13712.00
2023-04-26T09:25:42.517Z,10048.00
2023-04-26T09:30:42.409Z,8332.00
2023-04-26T09:35:42.449Z,11976.00
2023-04-26T09:40:42.328Z,12760.00
2023-04-26T09:45:42.372Z,12836.00
2023-04-26T09:50:42.148Z,11664.00
2023-04-26T09:55:42.177Z,9416.00
2023-04-26T10:00:42.160Z,8852.00
2023-04-26T10:05:42.178Z,11280.00
2023-04-26T10:10:41.854Z,14464.00
2023-04-26T10:15:44.841Z,18016.00
2023-04-26T10:20:41.788Z,15808.00
2023-04-26T10:25:41.766Z,10584.00
2023-04-26T10:30:41.590Z,10408.00
2023-04-26T10:35:41.615Z,9720.00
2023-04-26T10:40:41.538Z,15420.00
2023-04-26T10:45:41.529Z,18240.00
2023-04-26T10:50:41.350Z,18816.00
2023-04-26T10:55:41.428Z,13552.00
2023-04-26T11:00:41.273Z,13736.00
2023-04-26T11:05:41.201Z,12476.00
2023-04-26T11:10:41.189Z,14416.00
2023-04-26T11:15:44.205Z,15744.00
2023-04-26T11:20:41.005Z,16864.00
2023-04-26T11:25:40.912Z,8288.00
2023-04-26T11:30:40.908Z,8136.00
2023-04-26T11:35:40.969Z,13520.00
2023-04-26T11:40:40.810Z,16192.00
2023-04-26T11:45:40.646Z,14532.00
2023-04-26T11:50:40.579Z,15264.00
2023-04-26T11:55:40.714Z,13376.00
2023-04-26T12:00:40.569Z,15936.00
2023-04-26T12:05:40.507Z,14300.00
2023-04-26T12:10:40.389Z,14440.00
2023-04-26T12:15:43.400Z,15364.00
2023-04-26T12:20:40.279Z,16800.00
2023-04-26T12:25:40.269Z,16352.00
2023-04-26T12:30:40.080Z,17056.00
2023-04-26T12:35:40.087Z,18880.00
2023-04-26T12:40:39.911Z,16896.00
2023-04-26T12:45:40.015Z,15264.00
2023-04-26T12:50:39.854Z,17888.00
2023-04-26T12:55:39.835Z,15144.00
2023-04-26T13:00:39.631Z,14316.00
2023-04-26T13:05:39.897Z,11624.00
2023-04-26T13:10:39.543Z,14156.00
2023-04-26T13:15:42.513Z,15904.00
2023-04-26T13:20:39.393Z,13808.00
2023-04-26T13:25:39.438Z,13128.00
2023-04-26T13:30:39.269Z,12024.00
2023-04-26T13:35:39.272Z,11760.00
2023-04-26T13:40:39.165Z,13096.00
2023-04-26T13:45:39.202Z,12964.00
2023-04-26T13:50:39.135Z,14472.00
2023-04-26T13:55:39.036Z,15200.00
2023-04-26T14:00:38.905Z,15424.00
2023-04-26T14:05:39.207Z,13924.00
2023-04-26T14:10:38.784Z,13460.00
2023-04-26T14:15:41.795Z,12836.00
2023-04-26T14:20:38.865Z,12640.00
2023-04-26T14:25:38.584Z,11008.00
2023-04-26T14:30:38.718Z,11148.00
2023-04-26T14:35:38.653Z,12764.00
2023-04-26T14:40:38.349Z,15968.00
2023-04-26T14:50:38.320Z,9236.00
2023-04-26T14:55:38.299Z,9876.00
2023-04-26T15:00:38.082Z,11120.00
2023-04-26T15:05:38.129Z,9992.00
2023-04-26T15:10:37.951Z,9172.00
2023-04-26T15:15:40.932Z,9048.00
2023-04-26T15:20:38.033Z,6996.00
2023-04-26T15:25:37.759Z,7924.00
2023-04-26T15:30:37.690Z,8528.00
2023-04-26T15:35:37.957Z,9392.00
2023-04-26T15:40:38.347Z,8620.00
2023-04-26T15:45:37.524Z,7428.00
2023-04-26T15:50:37.639Z,7716.00
2023-04-26T15:55:37.457Z,7528.00
2023-04-26T16:10:05.332Z,6880.00
2023-04-26T16:15:04.972Z,7528.00
2023-04-26T16:20:04.936Z,7620.00
2023-04-26T16:25:05.303Z,7276.00
2023-04-26T16:30:04.805Z,6464.00
2023-04-26T16:35:04.731Z,6096.00
2023-04-26T16:40:06.579Z,5804.00
2023-04-26T16:45:04.593Z,4348.00
2023-04-26T16:50:04.670Z,3284.00
2023-04-26T16:55:04.445Z,2992.00
2023-04-26T17:00:07.441Z,2764.00
2023-04-26T17:05:04.413Z,3012.00
2023-04-26T17:10:04.310Z,3548.00
2023-04-26T17:15:04.857Z,2476.00
2023-04-26T17:20:04.183Z,1908.00
2023-04-26T17:25:03.991Z,1852.00
2023-04-26T17:30:04.068Z,1928.00
2023-04-26T17:35:04.181Z,1912.00
2023-04-26T17:40:04.019Z,1712.00
2023-04-26T17:45:03.816Z,1560.00
2023-04-26T17:50:03.721Z,1568.00
2023-04-26T17:55:03.606Z,1400.00
2023-04-26T18:00:06.817Z,1096.00
2023-04-26T18:05:03.622Z,852.00
2023-04-26T18:10:03.438Z,604.00
2023-04-26T18:15:03.402Z,424.00
2023-04-26T18:20:03.399Z,284.00
2023-04-26T18:25:03.251Z,184.00
2023-04-26T18:30:03.331Z,104.00
2023-04-26T18:35:03.171Z,56.00
2023-04-26T18:40:03.252Z,28.00
2023-04-26T18:45:02.984Z,12.00
2023-04-26T18:50:10.429Z,8.00
2023-04-26T18:55:03.054Z,4.00
2023-04-26T19:00:06.010Z,0.00
2023-04-26T19:05:02.963Z,0.00
2023-04-26T19:10:02.870Z,0.00
2023-04-26T19:15:03.152Z,0.00
2023-04-26T19:20:02.870Z,0.00
2023-04-26T19:25:02.495Z,0.00
2023-04-26T19:30:02.562Z,0.00
2023-04-26T19:35:02.483Z,0.00
2023-04-26T19:40:02.458Z,0.00
2023-04-26T19:45:02.570Z,0.00
2023-04-26T19:50:02.376Z,0.00
2023-04-26T19:55:02.231Z,0.00
2023-04-26T20:00:05.002Z,0.00
2023-04-26T20:05:02.062Z,0.00
2023-04-26T20:10:02.081Z,0.00
2023-04-26T20:15:02.107Z,0.00
2023-04-26T20:20:01.854Z,0.00
2023-04-26T20:25:02.052Z,0.00
2023-04-26T20:30:01.757Z,0.00
2023-04-26T20:35:01.569Z,0.00
2023-04-26T20:40:01.561Z,0.00
2023-04-26T20:45:02.438Z,0.00
2023-04-26T20:50:01.374Z,0.00
2023-04-26T20:55:01.295Z,0.00
2023-04-26T21:00:04.218Z,0.00
2023-04-26T21:05:01.191Z,0.00
2023-04-26T21:10:01.254Z,0.00
2023-04-26T21:15:01.194Z,0.00
2023-04-26T21:20:01.061Z,0.00
2023-04-26T21:25:08.824Z,0.00
2023-04-26T21:30:00.816Z,0.00
2023-04-26T21:35:01.385Z,0.00
2023-04-26T21:40:00.967Z,0.00
2023-04-26T21:45:01.515Z,0.00
2023-04-26T21:50:00.693Z,0.00
2023-04-26T21:55:00.559Z,0.00
2023-04-26T22:00:03.511Z,0.00
2023-04-26T22:05:00.514Z,0.00
2023-04-26T22:10:01.227Z,0.00
2023-04-26T22:15:00.290Z,0.00
2023-04-26T22:20:00.235Z,0.00
2023-04-26T22:25:00.232Z,0.00
2023-04-26T22:30:06.242Z,0.00
2023-04-26T22:35:01.379Z,0.00
2023-04-26T22:39:59.980Z,0.00
2023-04-26T22:44:59.947Z,0.00
2023-04-26T22:49:59.843Z,0.00
2023-04-26T22:55:00.071Z,0.00
2023-04-26T23:00:02.721Z,0.00
2023-04-26T23:05:20.813Z,0.00
2023-04-26T23:09:59.653Z,0.00
2023-04-26T23:14:59.473Z,0.00
2023-04-26T23:19:59.426Z,0.00
2023-04-26T23:24:59.403Z,0.00
2023-04-26T23:29:59.263Z,0.00
2023-04-26T23:34:59.404Z,0.00
2023-04-26T23:39:59.126Z,0.00
2023-04-26T23:44:59.236Z,0.00
2023-04-26T23:49:59.255Z,0.00
2023-04-26T23:59:45.021Z,0.00
